sensor_id;sensor_type;location;lat;lon;timestamp;P1;durP1;ratioP1;P2;durP2;ratioP2
61338;SDS011;47213;52.362;4.606;2024-02-15T00:05:51;20.90;;;3.10;;
61338;SDS011;47213;52.362;4.606;2024-02-15T00:15:51;22.60;;;4.60;;
61338;SDS011;47213;52.362;4.606;2024-02-15T00:25:52;19.30;;;5.40;;
61338;SDS011;47213;52.362;4.606;2024-02-15T00:35:52;15.90;;;4.40;;
61338;SDS011;47213;52.362;4.606;2024-02-15T00:45:53;16.60;;;4.50;;
61338;SDS011;47213;52.362;4.606;2024-02-15T00:55:53;19.00;;;4.60;;
61338;SDS011;47213;52.362;4.606;2024-02-15T01:05:53;17.60;;;4.90;;
61338;SDS011;47213;52.362;4.606;2024-02-15T01:15:54;15.70;;;5.40;;
61338;SDS011;47213;52.362;4.606;2024-02-15T01:25:54;17.30;;;5.20;;
61338;SDS011;47213;52.362;4.606;2024-02-15T01:35:54;20.30;;;5.70;;
61338;SDS011;47213;52.362;4.606;2024-02-15T01:45:55;17.50;;;5.90;;
61338;SDS011;47213;52.362;4.606;2024-02-15T01:55:56;18.60;;;6.70;;
61338;SDS011;47213;52.362;4.606;2024-02-15T02:05:56;18.80;;;7.10;;
61338;SDS011;47213;52.362;4.606;2024-02-15T02:15:56;17.90;;;8.20;;
61338;SDS011;47213;52.362;4.606;2024-02-15T02:25:57;18.90;;;8.40;;
61338;SDS011;47213;52.362;4.606;2024-02-15T02:35:57;20.30;;;9.80;;
61338;SDS011;47213;52.362;4.606;2024-02-15T02:45:58;21.40;;;9.60;;
61338;SDS011;47213;52.362;4.606;2024-02-15T02:55:58;20.80;;;10.00;;
61338;SDS011;47213;52.362;4.606;2024-02-15T03:05:59;20.10;;;9.90;;
61338;SDS011;47213;52.362;4.606;2024-02-15T03:15:59;19.10;;;9.60;;
61338;SDS011;47213;52.362;4.606;2024-02-15T03:26:01;18.70;;;8.60;;
61338;SDS011;47213;52.362;4.606;2024-02-15T03:36:00;20.80;;;8.20;;
61338;SDS011;47213;52.362;4.606;2024-02-15T03:46:00;20.20;;;7.50;;
61338;SDS011;47213;52.362;4.606;2024-02-15T03:56:01;15.50;;;6.90;;
61338;SDS011;47213;52.362;4.606;2024-02-15T04:06:01;18.00;;;6.70;;
61338;SDS011;47213;52.362;4.606;2024-02-15T04:16:02;18.80;;;7.00;;
61338;SDS011;47213;52.362;4.606;2024-02-15T04:26:02;18.50;;;8.50;;
61338;SDS011;47213;52.362;4.606;2024-02-15T04:36:03;16.80;;;9.20;;
61338;SDS011;47213;52.362;4.606;2024-02-15T04:46:03;19.90;;;9.60;;
61338;SDS011;47213;52.362;4.606;2024-02-15T04:56:05;20.80;;;10.60;;
61338;SDS011;47213;52.362;4.606;2024-02-15T05:06:04;18.60;;;10.90;;
61338;SDS011;47213;52.362;4.606;2024-02-15T05:16:04;19.80;;;14.20;;
61338;SDS011;47213;52.362;4.606;2024-02-15T05:26:05;23.40;;;15.70;;
61338;SDS011;47213;52.362;4.606;2024-02-15T05:36:05;25.10;;;16.10;;
61338;SDS011;47213;52.362;4.606;2024-02-15T05:46:05;26.40;;;17.20;;
61338;SDS011;47213;52.362;4.606;2024-02-15T05:56:06;27.70;;;17.60;;
61338;SDS011;47213;52.362;4.606;2024-02-15T06:16:06;26.10;;;18.00;;
61338;SDS011;47213;52.362;4.606;2024-02-15T06:26:07;33.90;;;20.10;;
61338;SDS011;47213;52.362;4.606;2024-02-15T06:36:08;34.30;;;21.00;;
61338;SDS011;47213;52.362;4.606;2024-02-15T06:46:08;33.80;;;20.90;;
61338;SDS011;47213;52.362;4.606;2024-02-15T06:56:09;32.00;;;19.90;;
61338;SDS011;47213;52.362;4.606;2024-02-15T07:06:08;30.80;;;19.10;;
61338;SDS011;47213;52.362;4.606;2024-02-15T07:16:09;24.20;;;15.40;;
61338;SDS011;47213;52.362;4.606;2024-02-15T07:26:09;22.20;;;14.20;;
61338;SDS011;47213;52.362;4.606;2024-02-15T07:36:09;18.60;;;11.70;;
61338;SDS011;47213;52.362;4.606;2024-02-15T07:46:12;18.40;;;11.80;;
61338;SDS011;47213;52.362;4.606;2024-02-15T07:56:11;19.00;;;11.60;;
61338;SDS011;47213;52.362;4.606;2024-02-15T08:06:11;18.10;;;11.70;;
61338;SDS011;47213;52.362;4.606;2024-02-15T08:16:11;17.30;;;11.40;;
61338;SDS011;47213;52.362;4.606;2024-02-15T08:26:12;15.50;;;10.10;;
61338;SDS011;47213;52.362;4.606;2024-02-15T08:36:12;14.90;;;10.70;;
61338;SDS011;47213;52.362;4.606;2024-02-15T08:46:13;16.60;;;10.30;;
61338;SDS011;47213;52.362;4.606;2024-02-15T08:56:13;18.30;;;11.60;;
61338;SDS011;47213;52.362;4.606;2024-02-15T09:06:13;23.50;;;12.90;;
61338;SDS011;47213;52.362;4.606;2024-02-15T09:16:14;26.20;;;15.70;;
61338;SDS011;47213;52.362;4.606;2024-02-15T09:26:14;30.00;;;16.60;;
61338;SDS011;47213;52.362;4.606;2024-02-15T09:36:15;30.60;;;17.20;;
61338;SDS011;47213;52.362;4.606;2024-02-15T09:46:15;31.50;;;17.80;;
61338;SDS011;47213;52.362;4.606;2024-02-15T09:56:16;28.90;;;16.50;;
61338;SDS011;47213;52.362;4.606;2024-02-15T10:06:16;30.30;;;17.70;;
61338;SDS011;47213;52.362;4.606;2024-02-15T10:16:18;31.50;;;18.40;;
61338;SDS011;47213;52.362;4.606;2024-02-15T10:26:20;32.10;;;18.80;;
61338;SDS011;47213;52.362;4.606;2024-02-15T10:36:23;31.40;;;18.00;;
61338;SDS011;47213;52.362;4.606;2024-02-15T10:46:18;28.30;;;17.20;;
61338;SDS011;47213;52.362;4.606;2024-02-15T10:56:22;26.30;;;16.40;;
61338;SDS011;47213;52.362;4.606;2024-02-15T11:06:20;32.10;;;17.40;;
61338;SDS011;47213;52.362;4.606;2024-02-15T11:36:30;26.70;;;15.50;;
61338;SDS011;47213;52.362;4.606;2024-02-15T11:46:21;23.90;;;15.00;;
61338;SDS011;47213;52.362;4.606;2024-02-15T12:16:22;19.10;;;12.40;;
61338;SDS011;47213;52.362;4.606;2024-02-15T12:26:23;16.10;;;10.00;;
61338;SDS011;47213;52.362;4.606;2024-02-15T12:36:24;12.40;;;7.70;;
61338;SDS011;47213;52.362;4.606;2024-02-15T12:46:25;12.30;;;6.70;;
61338;SDS011;47213;52.362;4.606;2024-02-15T12:56:25;11.00;;;6.50;;
61338;SDS011;47213;52.362;4.606;2024-02-15T13:06:27;10.30;;;5.30;;
61338;SDS011;47213;52.362;4.606;2024-02-15T13:16:28;8.90;;;3.80;;
61338;SDS011;47213;52.362;4.606;2024-02-15T13:26:29;8.10;;;3.30;;
61338;SDS011;47213;52.362;4.606;2024-02-15T13:36:30;8.30;;;3.40;;
61338;SDS011;47213;52.362;4.606;2024-02-15T13:46:31;7.90;;;3.00;;
61338;SDS011;47213;52.362;4.606;2024-02-15T13:56:32;7.60;;;2.70;;
61338;SDS011;47213;52.362;4.606;2024-02-15T14:06:33;6.90;;;2.40;;
61338;SDS011;47213;52.362;4.606;2024-02-15T14:16:34;6.90;;;2.60;;
61338;SDS011;47213;52.362;4.606;2024-02-15T14:26:35;6.60;;;2.40;;
61338;SDS011;47213;52.362;4.606;2024-02-15T14:36:36;6.30;;;2.50;;
61338;SDS011;47213;52.362;4.606;2024-02-15T14:46:37;6.60;;;2.40;;
61338;SDS011;47213;52.362;4.606;2024-02-15T14:56:38;6.60;;;3.40;;
61338;SDS011;47213;52.362;4.606;2024-02-15T15:06:38;9.40;;;4.60;;
61338;SDS011;47213;52.362;4.606;2024-02-15T15:16:39;11.30;;;4.90;;
61338;SDS011;47213;52.362;4.606;2024-02-15T15:26:40;9.40;;;3.80;;
61338;SDS011;47213;52.362;4.606;2024-02-15T15:36:41;10.50;;;3.60;;
61338;SDS011;47213;52.362;4.606;2024-02-15T15:46:42;10.40;;;3.80;;
61338;SDS011;47213;52.362;4.606;2024-02-15T15:56:42;11.40;;;3.60;;
61338;SDS011;47213;52.362;4.606;2024-02-15T16:06:43;9.20;;;3.10;;
61338;SDS011;47213;52.362;4.606;2024-02-15T16:16:44;7.90;;;2.80;;
